Time;durP1;ratioP1;P1;durP2;ratioP2;P2;SDS_P1;SDS_P2;PMS_P1;PMS_P2;Temp;Humidity;BMP_temperature;BMP_pressure;BME280_temperature;BME280_humidity;BME280_pressure;Samples;Min_cycle;Max_cycle;Signal;HPM_P1;HPM_P2
2022/01/06 00:01:03;;;;;;;25.07;4.80;;;;;;;;;;4939123;29;20431;-83
2022/01/06 00:03:31;;;;;;;23.92;5.00;;;;;;;;;;4925031;29;20871;-82
2022/01/06 00:05:57;;;;;;;25.63;4.63;;;;;;;;;;4922221;29;20436;-81
2022/01/06 00:08:23;;;;;;;22.92;4.70;;;;;;;;;;4921310;29;20439;-83
2022/01/06 00:10:51;;;;;;;23.08;4.47;;;;;;;;;;4922725;29;20521;-82
2022/01/06 00:13:24;;;;;;;19.73;4.03;;;;;;;;;;4908154;29;20459;-83
2022/01/06 00:23:34;;;;;;;13.38;3.42;;;;;;;;;;4943489;29;20766;-83
2022/01/06 00:26:01;;;;;;;19.05;4.18;;;;;;;;;;4923432;29;20534;-83
2022/01/06 00:28:27;;;;;;;20.38;4.00;;;4.90;99.90;;;;;;4925045;29;20494;-83
2022/01/06 00:30:53;;;;;;;21.63;4.05;;;;;;;;;;4922388;29;20438;-83
2022/01/06 00:33:20;;;;;;;17.08;3.33;;;;;;;;;;4941216;29;20506;-84
2022/01/06 00:35:46;;;;;;;17.05;3.50;;;;;;;;;;4922185;29;20447;-83
2022/01/06 00:38:12;;;;;;;19.85;3.65;;;;;;;;;;4923322;29;21069;-83
2022/01/06 00:40:39;;;;;;;18.05;3.33;;;;;;;;;;4936844;29;20655;-82
2022/01/06 00:43:06;;;;;;;16.73;3.65;;;4.90;99.90;;;;;;4921139;29;21016;-83
2022/01/06 00:45:33;;;;;;;23.55;3.95;;;;;;;;;;4925329;29;20443;-82
2022/01/06 00:47:59;;;;;;;18.77;3.47;;;;;;;;;;4922326;29;21108;-82
2022/01/06 00:50:26;;;;;;;19.55;3.78;;;;;;;;;;4940330;29;21008;-82
2022/01/06 00:52:52;;;;;;;19.23;3.60;;;;;;;;;;4925826;29;20438;-82
2022/01/06 00:55:18;;;;;;;14.60;3.60;;;;;;;;;;4925045;29;20515;-82
2022/01/06 00:57:44;;;;;;;18.13;3.00;;;;;;;;;;4922621;29;20460;-83
2022/01/06 01:00:11;;;;;;;17.85;3.50;;;;;;;;;;4922481;29;21023;-83
2022/01/06 01:02:37;;;;;;;21.50;3.43;;;;;;;;;;4940875;29;20450;-81
2022/01/06 01:05:03;;;;;;;15.70;3.55;;;;;;;;;;4922196;29;20450;-83
2022/01/06 01:07:29;;;;;;;19.88;3.58;;;;;;;;;;4922609;29;20486;-83
2022/01/06 01:09:55;;;;;;;18.70;4.10;;;;;;;;;;4921599;29;20448;-83
2022/01/06 01:12:24;;;;;;;17.07;3.73;;;;;;;;;;4940653;29;20839;-83
2022/01/06 01:15:05;;;;;;;22.73;4.47;;;;;;;;;;4953584;28;20442;-83
2022/01/06 01:17:31;;;;;;;18.00;4.10;;;;;;;;;;4954877;28;20533;-83
2022/01/06 01:19:57;;;;;;;20.10;3.97;;;;;;;;;;4921757;29;20535;-83
2022/01/06 01:22:23;;;;;;;20.85;4.30;;;;;;;;;;4922359;29;20427;-83
2022/01/06 01:24:49;;;;;;;21.65;4.85;;;;;;;;;;4918580;29;20433;-83
2022/01/06 01:27:20;;;;;;;21.50;4.28;;;;;;;;;;4949850;28;20443;-82
2022/01/06 01:29:58;;;;;;;16.98;3.97;;;;;;;;;;4939370;29;20493;-82
2022/01/06 01:32:35;;;;;;;22.70;4.05;;;;;;;;;;4908312;29;20442;-83
2022/01/06 01:35:02;;;;;;;25.25;4.47;;;;;;;;;;4923279;29;21913;-83
2022/01/06 01:37:29;;;;;;;20.37;4.87;;;;;;;;;;4950309;28;20440;-83
2022/01/06 01:39:55;;;;;;;22.50;4.35;;;;;;;;;;4955791;28;20494;-81
2022/01/06 01:42:21;;;;;;;19.45;4.00;;;;;;;;;;4926971;29;20439;-82
2022/01/06 01:44:50;;;;;;;19.13;3.85;;;;;;;;;;4925538;29;20488;-82
2022/01/06 01:47:23;;;;;;;21.15;4.30;;;;;;;;;;4943260;29;20475;-83
2022/01/06 01:49:54;;;;;;;20.75;4.43;;;;;;;;;;4924233;29;20452;-82
2022/01/06 01:52:20;;;;;;;21.48;3.88;;;;;;;;;;4955811;28;20474;-82
2022/01/06 01:54:46;;;;;;;19.55;4.72;;;;;;;;;;4940835;29;20459;-81
2022/01/06 01:57:12;;;;;;;17.53;3.93;;;;;;;;;;4957009;29;20442;-82
2022/01/06 01:59:38;;;;;;;19.05;3.58;;;;;;;;;;4926910;29;20816;-83
2022/01/06 02:02:05;;;;;;;25.33;4.25;;;;;;;;;;4908579;29;20423;-83
2022/01/06 02:04:31;;;;;;;20.55;3.85;;;;;;;;;;4925744;29;20666;-83
2022/01/06 02:06:57;;;;;;;20.92;3.42;;;;;;;;;;4942161;29;21016;-80
2022/01/06 02:09:23;;;;;;;20.80;3.58;;;;;;;;;;4925330;29;20455;-83
2022/01/06 02:11:49;;;;;;;18.15;3.42;;;;;;;;;;4948679;29;20439;-82
2022/01/06 02:14:15;;;;;;;17.27;3.70;;;;;;;;;;4922881;29;20431;-83
2022/01/06 02:16:42;;;;;;;19.45;3.35;;;;;;;;;;4900797;29;20836;-82
2022/01/06 02:19:08;;;;;;;21.25;3.10;;;;;;;;;;4924923;29;20459;-83
2022/01/06 02:21:38;;;;;;;21.48;3.38;;;;;;;;;;4923426;29;20435;-83
2022/01/06 02:24:07;;;;;;;16.97;3.80;;;;;;;;;;4926247;29;20431;-83
2022/01/06 02:26:33;;;;;;;19.63;3.00;;;;;;;;;;4926566;29;20520;-83
2022/01/06 02:28:59;;;;;;;19.65;3.65;;;;;;;;;;4958371;28;20531;-82
2022/01/06 02:31:25;;;;;;;19.05;3.35;;;;;;;;;;4923555;29;20431;-82
2022/01/06 02:33:51;;;;;;;22.67;3.35;;;;;;;;;;4925314;29;20435;-83
2022/01/06 02:36:17;;;;;;;17.77;3.70;;;;;;;;;;4942349;29;21096;-82
2022/01/06 02:38:44;;;;;;;13.35;2.80;;;;;;;;;;4943470;29;20436;-80
2022/01/06 02:41:10;;;;;;;15.38;3.55;;;;;;;;;;4893000;29;20974;-82
2022/01/06 02:43:36;;;;;;;22.00;3.70;;;;;;;;;;4940152;29;20458;-82
2022/01/06 02:46:02;;;;;;;15.05;3.25;;;;;;;;;;4925158;29;20936;-82
2022/01/06 02:48:28;;;;;;;17.42;3.30;;;;;;;;;;4926513;29;20436;-82
2022/01/06 02:50:54;;;;;;;18.00;3.00;;;;;;;;;;4923922;29;20423;-82
2022/01/06 02:53:20;;;;;;;16.27;3.50;;;;;;;;;;4922873;29;20447;-82
2022/01/06 02:55:53;;;;;;;15.95;3.22;;;;;;;;;;4926147;29;20419;-83
2022/01/06 02:58:19;;;;;;;18.42;3.30;;;;;;;;;;4923880;29;21046;-82
2022/01/06 03:00:45;;;;;;;13.95;3.22;;;;;;;;;;4925202;29;20478;-83
2022/01/06 03:03:11;;;;;;;15.43;3.20;;;;;;;;;;4941157;29;20524;-82
2022/01/06 03:05:38;;;;;;;16.48;3.35;;;;;;;;;;4956275;28;20451;-82
2022/01/06 03:08:04;;;;;;;15.73;3.15;;;;;;;;;;4926114;29;20443;-82
2022/01/06 03:10:35;;;;;;;16.02;3.30;;;;;;;;;;4955106;28;20437;-82
2022/01/06 03:13:01;;;;;;;17.35;3.38;;;;;;;;;;4941444;29;20486;-82
2022/01/06 03:15:27;;;;;;;10.83;3.00;;;;;;;;;;4924999;29;20515;-82
2022/01/06 03:17:57;;;;;;;14.02;2.72;;;;;;;;;;4955643;28;20443;-82
2022/01/06 03:20:25;;;;;;;20.70;3.57;;;;;;;;;;4909939;29;20454;-82
2022/01/06 03:22:52;;;;;;;13.73;3.03;;;;;;;;;;4920378;29;20437;-82
2022/01/06 03:25:18;;;;;;;14.95;2.80;;;;;;;;;;4921715;29;20571;-82
2022/01/06 03:27:45;;;;;;;16.73;3.10;;;;;;;;;;4922081;29;20443;-82
2022/01/06 03:30:18;;;;;;;14.87;3.00;;;;;;;;;;4924583;29;20480;-80
2022/01/06 03:32:45;;;;;;;19.02;3.70;;;;;;;;;;4940693;29;20436;-81
2022/01/06 03:35:12;;;;;;;12.38;2.60;;;;;;;;;;4924468;29;20438;-81
2022/01/06 03:37:39;;;;;;;18.80;3.13;;;;;;;;;;4924740;29;20435;-81
2022/01/06 03:40:06;;;;;;;14.13;3.17;;;3.20;99.90;;;;;;4940611;29;20446;-82
2022/01/06 03:42:32;;;;;;;15.23;3.22;;;;;;;;;;4924873;29;20432;-81
2022/01/06 03:44:59;;;;;;;14.85;2.65;;;;;;;;;;4921730;29;20439;-82
2022/01/06 03:47:25;;;;;;;16.17;3.00;;;;;;;;;;4924993;29;20457;-81
2022/01/06 03:49:51;;;;;;;17.65;3.03;;;;;;;;;;4922910;29;20445;-81
2022/01/06 03:52:17;;;;;;;15.37;2.80;;;;;;;;;;4923619;29;20431;-82
2022/01/06 03:54:43;;;;;;;18.70;3.20;;;;;;;;;;4924784;29;20439;-81
2022/01/06 03:57:09;;;;;;;16.80;3.03;;;;;;;;;;4907646;29;20455;-81
2022/01/06 03:59:35;;;;;;;13.23;2.90;;;;;;;;;;4909382;29;20447;-81
2022/01/06 04:02:02;;;;;;;12.73;3.10;;;;;;;;;;4919406;29;20566;-81
2022/01/06 04:04:28;;;;;;;22.02;3.00;;;;;;;;;;4924198;29;20419;-81
2022/01/06 04:06:54;;;;;;;16.02;2.85;;;;;;;;;;4941019;29;20468;-82
2022/01/06 04:09:20;;;;;;;17.27;3.22;;;;;;;;;;4954592;28;20439;-82
2022/01/06 04:11:46;;;;;;;16.65;2.90;;;;;;;;;;4924028;29;20914;-82
2022/01/06 04:14:12;;;;;;;20.50;3.17;;;;;;;;;;4922409;29;20439;-82
2022/01/06 04:16:40;;;;;;;17.17;3.90;;;;;;;;;;4923962;29;20431;-82
2022/01/06 04:19:06;;;;;;;13.70;3.00;;;;;;;;;;4922447;29;20442;-82
2022/01/06 04:21:32;;;;;;;20.05;3.35;;;;;;;;;;4922807;29;21145;-82
2022/01/06 04:23:58;;;;;;;18.65;3.10;;;;;;;;;;4924494;29;20447;-81
2022/01/06 04:26:27;;;;;;;15.88;2.85;;;;;;;;;;4906952;29;20459;-82
2022/01/06 04:28:53;;;;;;;16.45;3.20;;;;;;;;;;4943962;28;20470;-82
2022/01/06 04:31:19;;;;;;;17.27;3.40;;;;;;;;;;4920675;29;20490;-81
2022/01/06 04:33:45;;;;;;;22.05;3.38;;;;;;;;;;4923694;29;20454;-82
2022/01/06 04:36:11;;;;;;;14.85;3.08;;;;;;;;;;4939962;29;20431;-82
2022/01/06 04:38:37;;;;;;;14.97;2.90;;;;;;;;;;4924291;29;20435;-82
2022/01/06 04:41:04;;;;;;;20.95;3.65;;;;;;;;;;4922820;29;20443;-82
2022/01/06 04:43:30;;;;;;;19.48;3.40;;;;;;;;;;4922411;29;20435;-82
2022/01/06 04:45:56;;;;;;;18.58;3.65;;;;;;;;;;4937990;29;20503;-82
2022/01/06 04:48:22;;;;;;;17.38;3.40;;;;;;;;;;4921427;29;20436;-82
2022/01/06 04:50:48;;;;;;;14.40;2.97;;;;;;;;;;4938937;29;20522;-82
2022/01/06 04:53:14;;;;;;;18.10;3.90;;;;;;;;;;4921090;29;20533;-81
2022/01/06 04:55:40;;;;;;;22.13;3.83;;;;;;;;;;4923000;29;20508;-82
2022/01/06 04:58:06;;;;;;;14.77;2.72;;;;;;;;;;4939050;29;20511;-82
2022/01/06 05:00:33;;;;;;;22.27;3.50;;;;;;;;;;4921163;29;20868;-81
2022/01/06 05:02:59;;;;;;;17.95;3.47;;;;;;;;;;4908343;29;20439;-81
2022/01/06 05:05:25;;;;;;;17.92;3.40;;;;;;;;;;4922648;29;20435;-81
2022/01/06 05:07:51;;;;;;;25.88;3.80;;;;;;;;;;4923463;29;20431;-81
2022/01/06 05:10:17;;;;;;;20.17;3.38;;;;;;;;;;4920872;29;20446;-81
2022/01/06 05:12:44;;;;;;;22.37;3.63;;;;;;;;;;4936663;29;21040;-82
2022/01/06 05:15:11;;;;;;;18.30;3.33;;;;;;;;;;4922991;29;20436;-81
2022/01/06 05:17:37;;;;;;;17.35;3.40;;;;;;;;;;4922167;29;20466;-81
2022/01/06 05:20:06;;;;;;;16.63;3.83;;;;;;;;;;4906417;29;20428;-81
2022/01/06 05:22:35;;;;;;;18.35;3.97;;;;;;;;;;4922478;29;20447;-81
2022/01/06 05:25:01;;;;;;;21.85;4.22;;;;;;;;;;4922105;29;20474;-81
2022/01/06 05:27:27;;;;;;;22.20;3.50;;;;;;;;;;4924920;29;20436;-81
2022/01/06 05:29:53;;;;;;;21.33;3.85;;;;;;;;;;4907091;29;20440;-81
2022/01/06 05:32:19;;;;;;;22.10;3.40;;;;;;;;;;4952201;28;20431;-81
2022/01/06 05:34:45;;;;;;;25.23;3.95;;;;;;;;;;4922269;29;20439;-81
2022/01/06 05:37:11;;;;;;;22.67;3.65;;;;;;;;;;4922789;29;20436;-81
2022/01/06 05:39:37;;;;;;;21.35;3.65;;;;;;;;;;4920148;29;20439;-81
2022/01/06 05:42:03;;;;;;;19.95;3.85;;;;;;;;;;4922785;29;20873;-81
2022/01/06 05:44:33;;;;;;;20.40;3.85;;;;;;;;;;4922724;29;20458;-80
2022/01/06 05:46:59;;;;;;;17.45;3.50;;;;;;;;;;4921532;29;20463;-81
2022/01/06 05:49:25;;;;;;;19.05;3.67;;;;;;;;;;4921163;29;20539;-82
2022/01/06 05:51:51;;;;;;;19.98;3.38;;;;;;;;;;4922888;29;20437;-81
2022/01/06 05:54:17;;;;;;;22.55;3.70;;;;;;;;;;4953917;28;20451;-81
2022/01/06 05:56:43;;;;;;;21.92;4.53;;;;;;;;;;4922124;29;20451;-81
2022/01/06 05:59:10;;;;;;;22.45;4.15;;;;;;;;;;4921420;29;20446;-81
2022/01/06 06:01:36;;;;;;;18.10;3.67;;;;;;;;;;4952539;29;20669;-81
2022/01/06 06:04:02;;;;;;;21.23;4.10;;;;;;;;;;4921231;29;20431;-81
2022/01/06 06:06:28;;;;;;;26.70;4.55;;;;;;;;;;4922170;29;20439;-82
2022/01/06 06:08:55;;;;;;;19.63;3.95;;;;;;;;;;4902080;29;20500;-82
2022/01/06 06:11:21;;;;;;;21.13;3.47;;;;;;;;;;4938503;29;20443;-80
2022/01/06 06:13:47;;;;;;;18.13;3.40;;;;;;;;;;4921859;29;20439;-81
2022/01/06 06:16:13;;;;;;;19.35;3.97;;;;;;;;;;4922063;29;20439;-81
2022/01/06 06:18:39;;;;;;;21.13;4.35;;;;;;;;;;4920907;29;20435;-81
2022/01/06 06:21:06;;;;;;;16.67;4.10;;;;;;;;;;4935986;29;20444;-82
2022/01/06 06:23:32;;;;;;;18.65;4.05;;;;;;;;;;4951607;28;20501;-81
2022/01/06 06:25:58;;;;;;;19.63;4.20;;;;;;;;;;4926459;29;20451;-80
2022/01/06 06:28:24;;;;;;;19.73;4.15;;;;;;;;;;4942598;29;20431;-81
2022/01/06 06:30:50;;;;;;;19.45;4.15;;;;;;;;;;4922655;29;20519;-81
2022/01/06 06:33:17;;;;;;;24.00;4.72;;;;;;;;;;4909181;29;20502;-80
2022/01/06 06:35:43;;;;;;;18.63;4.07;;;;;;;;;;4924845;29;20434;-80
2022/01/06 06:38:09;;;;;;;20.30;3.92;;;;;;;;;;4916238;29;20439;-80
2022/01/06 06:40:35;;;;;;;24.02;4.60;;;;;;;;;;4923232;29;20439;-81
2022/01/06 06:43:01;;;;;;;21.48;4.00;;;;;;;;;;4939928;29;20491;-81
2022/01/06 06:45:27;;;;;;;25.10;3.83;;;;;;;;;;4954053;28;20438;-81
2022/01/06 06:47:53;;;;;;;20.95;3.85;;;;;;;;;;4908606;29;20423;-86
2022/01/06 06:50:21;;;;;;;19.05;4.10;;;;;;;;;;4907288;29;20434;-81
2022/01/06 06:52:47;;;;;;;17.77;3.70;;;;;;;;;;4950509;28;21091;-82
2022/01/06 06:55:14;;;;;;;19.30;3.72;;;;;;;;;;4957071;28;20514;-82
2022/01/06 06:57:41;;;;;;;22.15;4.30;;;;;;;;;;4942018;29;20520;-82
2022/01/06 07:00:09;;;;;;;21.10;4.18;;;;;;;;;;4911331;29;20435;-81
2022/01/06 07:02:35;;;;;;;22.00;4.20;;;;;;;;;;4922736;29;21023;-82
2022/01/06 07:05:01;;;;;;;22.13;4.27;;;;;;;;;;4940839;29;20486;-82
2022/01/06 07:07:27;;;;;;;20.73;4.80;;;;;;;;;;4926181;29;20474;-81
2022/01/06 07:09:54;;;;;;;22.70;3.90;;;;;;;;;;4924395;29;20431;-81
2022/01/06 07:12:20;;;;;;;17.85;3.78;;;;;;;;;;4925383;29;20434;-81
2022/01/06 07:14:46;;;;;;;24.80;4.15;;;;;;;;;;4924087;29;20439;-81
2022/01/06 07:17:12;;;;;;;20.45;3.67;;;;;;;;;;4921928;29;20478;-81
2022/01/06 07:19:38;;;;;;;23.50;3.83;;;;;;;;;;4939527;29;20532;-81
2022/01/06 07:22:05;;;;;;;25.83;4.05;;;;;;;;;;4925011;29;20432;-81
2022/01/06 07:24:31;;;;;;;24.77;3.95;;;;;;;;;;4924616;29;20438;-81
2022/01/06 07:26:57;;;;;;;23.30;3.67;;;;;;;;;;4939382;29;20447;-82
2022/01/06 07:29:23;;;;;;;21.70;3.73;;;;;;;;;;4912564;29;20427;-81
2022/01/06 07:31:50;;;;;;;22.98;3.95;;;;;;;;;;4940586;29;20443;-81
2022/01/06 07:34:16;;;;;;;19.30;3.80;;;;;;;;;;4940264;29;20431;-81
2022/01/06 07:36:42;;;;;;;17.30;3.83;;;;;;;;;;4925011;29;20423;-82
2022/01/06 07:39:08;;;;;;;22.67;4.27;;;;;;;;;;4924771;29;20447;-81
2022/01/06 07:41:34;;;;;;;16.10;3.70;;;;;;;;;;4924365;29;20549;-82
2022/01/06 07:44:00;;;;;;;17.42;3.30;;;;;;;;;;4907649;29;20437;-82
2022/01/06 07:46:32;;;;;;;24.15;4.95;;;;;;;;;;4900227;29;20821;-82
2022/01/06 07:48:59;;;;;;;23.77;4.85;;;;;;;;;;4907801;29;20525;-82
2022/01/06 07:51:26;;;;;;;21.40;4.18;;;;;;;;;;4906686;29;20441;-82
2022/01/06 07:53:52;;;;;;;22.83;4.30;;;;;;;;;;4903200;29;20440;-80
2022/01/06 07:56:18;;;;;;;19.10;4.00;;;;;;;;;;4936194;29;20493;-80
2022/01/06 07:58:45;;;;;;;26.83;4.40;;;;;;;;;;4917328;29;20443;-80
2022/01/06 08:01:11;;;;;;;21.25;4.32;;;;;;;;;;4898170;29;21594;-81
2022/01/06 08:03:38;;;;;;;24.83;4.05;;;;;;;;;;4916779;29;20477;-81
2022/01/06 08:06:04;;;;;;;20.67;3.63;;;;;;;;;;4897327;29;20441;-81
2022/01/06 08:08:30;;;;;;;22.77;3.85;;;;;;;;;;4900289;29;20456;-80
2022/01/06 08:10:56;;;;;;;21.33;4.13;;;;;;;;;;4895444;29;20441;-82
2022/01/06 08:13:22;;;;;;;21.73;4.07;;;;;;;;;;4913232;29;20436;-83
2022/01/06 08:15:48;;;;;;;20.83;4.30;;;;;;;;;;4913881;29;20461;-81
2022/01/06 08:18:14;;;;;;;22.38;4.10;;;;;;;;;;4899568;29;20441;-82
2022/01/06 08:20:41;;;;;;;23.58;4.43;;;;;;;;;;4929850;29;20437;-82
2022/01/06 08:23:07;;;;;;;22.00;4.40;;;;;;;;;;4896970;29;20452;-81
2022/01/06 08:25:34;;;;;;;25.30;4.00;;;;;;;;;;4917330;29;20445;-82
2022/01/06 08:28:00;;;;;;;19.67;4.20;;;;;;;;;;4916410;29;20429;-83
2022/01/06 08:30:26;;;;;;;23.38;4.63;;;;;;;;;;4902963;29;20481;-81
2022/01/06 08:32:53;;;;;;;22.83;5.25;;;;;;;;;;4902341;29;20456;-81
2022/01/06 08:35:19;;;;;;;20.13;4.53;;;;;;;;;;4901516;29;20793;-81
2022/01/06 08:37:45;;;;;;;22.67;4.60;;;;;;;;;;4903176;29;20656;-82
2022/01/06 08:40:11;;;;;;;25.08;5.50;;;;;;;;;;4914883;29;20441;-82
2022/01/06 08:42:37;;;;;;;22.63;4.65;;;;;;;;;;4931143;29;20463;-82
2022/01/06 08:45:04;;;;;;;19.80;4.05;;;;;;;;;;4900458;29;20443;-82
2022/01/06 08:47:31;;;;;;;21.23;4.57;;;;;;;;;;4919706;29;20439;-83
2022/01/06 08:49:57;;;;;;;24.23;4.63;;;;;;;;;;4919502;29;20439;-83
2022/01/06 08:52:23;;;;;;;23.30;5.27;;;;;;;;;;4917816;29;20673;-80
2022/01/06 08:54:49;;;;;;;24.38;4.93;;;;;;;;;;4920310;29;20426;-83
2022/01/06 08:57:16;;;;;;;21.53;4.13;;;;;;;;;;4902120;29;20453;-82
2022/01/06 08:59:42;;;;;;;23.53;4.50;;;;;;;;;;4918658;29;20431;-82
2022/01/06 09:02:09;;;;;;;25.65;4.45;;;;;;;;;;4917664;29;20443;-83
2022/01/06 09:04:35;;;;;;;21.17;4.63;;;;;;;;;;4920224;29;20443;-83
2022/01/06 09:07:02;;;;;;;24.63;5.43;;;;;;;;;;4905671;29;20482;-83
2022/01/06 09:09:29;;;;;;;19.40;4.43;;;;;;;;;;4917297;29;20503;-83
2022/01/06 09:11:55;;;;;;;19.42;4.30;;;;;;;;;;4918570;29;20455;-82
2022/01/06 09:14:25;;;;;;;20.90;4.72;;;;;;;;;;4919409;29;20459;-83
2022/01/06 09:16:54;;;;;;;18.60;4.32;;;;;;;;;;4922571;29;20467;-86
2022/01/06 09:19:20;;;;;;;22.38;4.60;;;;;;;;;;4951127;28;20428;-83
2022/01/06 09:21:47;;;;;;;19.33;4.47;;;;;;;;;;4920501;29;20424;-82
2022/01/06 09:24:13;;;;;;;19.63;4.82;;;;;;;;;;4917273;29;20447;-83
2022/01/06 09:26:39;;;;;;;19.42;4.88;;;;;;;;;;4931832;29;20507;-82
2022/01/06 09:29:07;;;;;;;24.55;5.25;;;;;;;;;;4920232;29;20432;-82
2022/01/06 09:31:35;;;;;;;23.30;5.93;;;;;;;;;;4916953;29;20719;-82
2022/01/06 09:34:02;;;;;;;19.85;4.90;;;;;;;;;;4919481;29;20447;-82
2022/01/06 09:36:28;;;;;;;25.95;5.70;;;;;;;;;;4934039;29;20486;-82
2022/01/06 09:38:55;;;;;;;18.75;4.45;;;;;;;;;;4918706;29;20435;-82
2022/01/06 09:41:22;;;;;;;25.10;5.00;;;;;;;;;;4935496;29;20502;-81
2022/01/06 09:43:49;;;;;;;21.33;5.40;;;;;;;;;;4917721;29;21116;-81
2022/01/06 09:46:16;;;;;;;21.27;5.00;;;;;;;;;;4916614;29;20475;-81
2022/01/06 09:48:42;;;;;;;22.42;5.18;;;;;;;;;;4917904;29;20456;-81
2022/01/06 09:51:09;;;;;;;24.42;6.13;;;;;;;;;;4917640;29;20439;-81
2022/01/06 09:53:35;;;;;;;23.52;5.22;;;;;;;;;;4916317;29;20462;-82
2022/01/06 09:56:01;;;;;;;26.02;5.55;;;;;;;;;;4933406;29;20436;-82
2022/01/06 09:58:28;;;;;;;25.13;5.60;;;;;;;;;;4937669;29;21985;-82
2022/01/06 10:00:56;;;;;;;22.98;5.63;;;;;;;;;;4936598;29;20423;-82
2022/01/06 10:03:32;;;;;;;24.70;6.47;;;;;;;;;;4937162;29;20446;-82
2022/01/06 10:06:08;;;;;;;25.13;5.82;;;;;;;;;;4918750;29;20498;-81
2022/01/06 10:08:34;;;;;;;25.23;6.05;;;;;;;;;;4920097;29;20438;-80
2022/01/06 10:11:21;;;;;;;26.55;6.70;;;;;;;;;;4951979;28;20439;-84
2022/01/06 10:14:04;;;;;;;20.95;6.10;;;;;;;;;;4919202;29;20446;-85
2022/01/06 10:16:32;;;;;;;23.52;6.20;;;;;;;;;;4921770;29;20419;-88
2022/01/06 10:19:10;;;;;;;29.52;5.90;;;;;;;;;;4906276;29;20423;-85
2022/01/06 10:21:44;;;;;;;25.92;5.75;;;;;;;;;;4954390;28;20539;-86
2022/01/06 10:24:10;;;;;;;25.27;6.03;;;;;;;;;;4919866;29;20559;-85
2022/01/06 10:26:37;;;;;;;28.67;6.88;;;;;;;;;;4919000;29;20467;-85
2022/01/06 10:29:06;;;;;;;24.70;5.90;;;;;;;;;;4901370;29;20474;-83
2022/01/06 10:31:33;;;;;;;26.65;5.72;;;;;;;;;;4916970;29;20443;-83
2022/01/06 10:33:59;;;;;;;24.73;5.60;;;;;;;;;;4936568;29;20790;-84
2022/01/06 10:36:29;;;;;;;21.67;5.20;;;;;;;;;;4936328;29;20540;-83
2022/01/06 10:38:56;;;;;;;25.60;5.60;;;;;;;;;;4952580;28;20439;-84
2022/01/06 10:41:22;;;;;;;26.08;5.10;;;;;;;;;;4934228;29;21989;-83
2022/01/06 10:43:49;;;;;;;25.77;5.07;;;;;;;;;;4917127;29;20447;-86
2022/01/06 10:46:15;;;;;;;22.40;5.03;;;;;;;;;;4936055;29;20471;-84
2022/01/06 10:48:45;;;;;;;26.10;5.30;;;;;;;;;;4920427;29;20428;-85
2022/01/06 10:51:11;;;;;;;22.83;5.20;;;;;;;;;;4920019;29;20453;-84
2022/01/06 10:53:50;;;;;;;19.80;5.07;;;;;;;;;;4920954;29;20467;-83
2022/01/06 10:56:18;;;;;;;19.70;4.78;;;5.00;99.90;;;;;;4936186;29;20503;-88
2022/01/06 10:58:45;;;;;;;21.88;4.25;;;;;;;;;;4905151;29;20530;-86
2022/01/06 11:01:16;;;;;;;17.33;4.47;;;;;;;;;;4951860;28;20453;-85
2022/01/06 11:03:42;;;;;;;20.50;4.18;;;;;;;;;;4922463;29;20447;-85
2022/01/06 11:06:10;;;;;;;23.17;4.97;;;;;;;;;;4920534;29;20448;-85
2022/01/06 11:08:40;;;;;;;17.13;4.47;;;;;;;;;;4921528;29;20474;-86
2022/01/06 11:13:36;;;;;;;24.38;4.82;;;;;;;;;;4951430;28;20502;-84
2022/01/06 11:16:02;;;;;;;20.58;4.60;;;;;;;;;;4922546;29;20442;-84
2022/01/06 11:18:29;;;;;;;18.70;4.10;;;;;;;;;;4919657;29;20440;-84
2022/01/06 11:21:02;;;;;;;19.58;4.45;;;;;;;;;;4920615;29;20462;-83
2022/01/06 11:23:31;;;;;;;20.00;3.83;;;;;;;;;;4950954;28;20502;-85
2022/01/06 11:26:06;;;;;;;17.40;4.00;;;;;;;;;;4920527;29;20451;-85
2022/01/06 11:28:32;;;;;;;20.02;4.13;;;;;;;;;;4935570;29;20427;-84
2022/01/06 11:31:12;;;;;;;23.65;4.32;;;;;;;;;;4919518;29;20447;-83
2022/01/06 11:33:41;;;;;;;20.87;3.87;;;;;;;;;;4936963;29;20453;-85
2022/01/06 11:36:17;;;;;;;18.70;4.03;;;;;;;;;;4949548;28;21824;-86
2022/01/06 11:38:50;;;;;;;20.65;3.97;;;;;;;;;;4935727;29;20553;-85
2022/01/06 11:41:17;;;;;;;18.92;4.45;;;;;;;;;;4935316;29;20447;-83
2022/01/06 11:43:46;;;;;;;18.35;3.70;;;6.40;99.90;;;;;;4916615;29;20434;-83
2022/01/06 11:46:15;;;;;;;15.88;3.80;;;;;;;;;;4918810;29;20449;-83
2022/01/06 11:48:54;;;;;;;19.27;4.15;;;;;;;;;;4905886;29;20431;-83
2022/01/06 11:51:34;;;;;;;17.10;3.75;;;;;;;;;;4904875;29;21021;-82
2022/01/06 11:54:11;;;;;;;16.47;3.83;;;;;;;;;;4906422;29;20441;-83
2022/01/06 11:56:51;;;;;;;17.00;4.35;;;;;;;;;;4905893;29;21030;-84
2022/01/06 11:59:28;;;;;;;19.45;4.03;;;;;;;;;;4923217;29;20448;-83
2022/01/06 12:01:54;;;;;;;16.63;3.90;;;;;;;;;;4905352;29;20509;-83
2022/01/06 12:04:22;;;;;;;17.42;4.10;;;;;;;;;;4905508;29;20933;-82
2022/01/06 12:06:48;;;;;;;18.55;3.80;;;;;;;;;;4938077;29;20445;-82
2022/01/06 12:09:16;;;;;;;16.67;3.80;;;;;;;;;;4924927;29;20527;-82
2022/01/06 12:11:42;;;;;;;15.38;3.50;;;;;;;;;;4903936;29;20442;-82
2022/01/06 12:14:08;;;;;;;18.07;3.23;;;;;;;;;;4905695;29;20445;-82
2022/01/06 12:16:34;;;;;;;13.57;3.33;;;;;;;;;;4890124;29;20512;-83
2022/01/06 12:19:02;;;;;;;17.52;3.42;;;;;;;;;;4887319;29;20516;-83
2022/01/06 12:21:28;;;;;;;13.63;3.22;;;;;;;;;;4934318;29;20421;-82
2022/01/06 12:24:06;;;;;;;13.80;3.17;;;;;;;;;;4939251;29;20964;-82
2022/01/06 12:26:33;;;;;;;13.77;3.63;;;;;;;;;;4906679;29;20444;-82
2022/01/06 12:28:59;;;;;;;14.38;3.40;;;;;;;;;;4938059;29;20433;-82
2022/01/06 12:31:26;;;;;;;16.08;3.55;;;;;;;;;;4937237;29;21004;-82
2022/01/06 12:33:58;;;;;;;16.85;3.40;;;;;;;;;;4922104;29;20940;-82
2022/01/06 12:36:24;;;;;;;15.70;3.85;;;;;;;;;;4905656;29;20441;-81
2022/01/06 12:38:50;;;;;;;14.77;3.17;;;;;;;;;;4922337;29;20964;-81
2022/01/06 12:41:24;;;;;;;13.40;3.28;;;;;;;;;;4906450;29;20451;-81
2022/01/06 12:43:50;;;;;;;12.20;2.63;;;;;;;;;;4903134;29;20429;-82
2022/01/06 12:46:18;;;;;;;17.80;2.85;;;;;;;;;;4930851;29;20463;-81
2022/01/06 12:48:49;;;;;;;12.68;2.80;;;;;;;;;;4954459;28;20474;-82
2022/01/06 12:51:20;;;;;;;15.03;2.63;;;;;;;;;;4926375;29;20467;-83
2022/01/06 12:53:47;;;;;;;10.80;2.83;;;;;;;;;;4925345;29;20497;-82
2022/01/06 12:56:23;;;;;;;11.85;2.60;;;;;;;;;;4956376;28;20431;-82
2022/01/06 12:58:49;;;;;;;12.00;2.83;;;;;;;;;;4925299;29;20450;-82
2022/01/06 13:01:19;;;;;;;16.17;2.88;;;;;;;;;;4941250;28;20539;-82
2022/01/06 13:03:51;;;;;;;16.20;3.17;;;;;;;;;;4948339;29;20461;-83
2022/01/06 13:06:17;;;;;;;18.60;3.08;;;;;;;;;;4926273;29;20443;-83
2022/01/06 13:08:46;;;;;;;16.58;3.53;;;6.90;99.90;;;;;;4911335;29;20447;-83
2022/01/06 13:11:12;;;;;;;12.57;3.03;;;;;;;;;;4925600;29;20802;-81
2022/01/06 13:13:49;;;;;;;11.88;2.50;;;7.30;99.90;;;;;;4909782;29;20431;-82
2022/01/06 13:16:17;;;;;;;14.55;3.20;;;;;;;;;;4925768;29;20443;-82
2022/01/06 13:18:53;;;;;;;13.65;2.78;;;;;;;;;;4908233;29;20447;-82
2022/01/06 13:21:26;;;;;;;12.63;2.70;;;;;;;;;;4955993;28;20471;-83
2022/01/06 13:23:54;;;;;;;15.50;3.30;;;;;;;;;;4952446;28;20526;-83
2022/01/06 13:26:20;;;;;;;13.35;3.33;;;;;;;;;;4924456;29;20471;-82
2022/01/06 13:28:55;;;;;;;12.80;2.78;;;;;;;;;;4955446;28;20515;-82
2022/01/06 13:31:23;;;;;;;13.95;2.75;;;;;;;;;;4922662;29;20435;-82
2022/01/06 13:33:54;;;;;;;11.07;2.20;;;;;;;;;;4923816;29;20427;-81
2022/01/06 13:36:26;;;;;;;12.85;2.60;;;;;;;;;;4927865;29;20451;-82
2022/01/06 13:38:53;;;;;;;10.73;2.85;;;;;;;;;;4928109;29;20459;-82
2022/01/06 13:41:25;;;;;;;11.85;2.63;;;;;;;;;;4943640;29;20443;-83
2022/01/06 13:43:56;;;;;;;12.85;2.45;;;;;;;;;;4941024;29;20427;-83
2022/01/06 13:46:25;;;;;;;11.15;2.60;;;;;;;;;;4928917;29;21275;-83
2022/01/06 13:51:37;;;;;;;12.68;2.60;;;;;;;;;;4927963;29;20431;-81
2022/01/06 13:54:07;;;;;;;14.88;2.80;;;;;;;;;;4929303;29;20463;-83
2022/01/06 13:56:34;;;;;;;9.60;2.35;;;;;;;;;;4936324;29;20456;-83
2022/01/06 13:59:11;;;;;;;13.27;2.40;;;;;;;;;;4922730;29;20420;-83
2022/01/06 14:01:44;;;;;;;11.03;2.20;;;;;;;;;;4957591;28;20454;-83
2022/01/06 14:04:21;;;;;;;13.80;2.58;;;;;;;;;;4925053;29;20450;-82
2022/01/06 14:06:48;;;;;;;14.10;2.72;;;;;;;;;;4925554;29;20431;-82
2022/01/06 14:09:16;;;;;;;14.73;3.20;;;;;;;;;;4912624;29;20490;-82
2022/01/06 14:11:42;;;;;;;15.32;3.20;;;;;;;;;;4913870;29;20438;-82
2022/01/06 14:14:08;;;;;;;13.00;2.85;;;;;;;;;;4927888;29;21050;-82
2022/01/06 14:16:34;;;;;;;10.48;2.70;;;;;;;;;;4928138;29;20470;-81
2022/01/06 14:19:01;;;;;;;14.30;2.40;;;;;;;;;;4893503;29;20480;-81
2022/01/06 14:21:27;;;;;;;13.63;2.70;;;;;;;;;;4965320;28;20446;-81
2022/01/06 14:23:53;;;;;;;12.97;2.90;;;;;;;;;;4925763;29;20435;-81
2022/01/06 14:26:19;;;;;;;15.98;2.90;;;;;;;;;;4926033;29;20439;-81
2022/01/06 14:28:45;;;;;;;12.53;2.63;;;;;;;;;;4926406;29;20457;-82
2022/01/06 14:31:12;;;;;;;13.55;3.10;;;;;;;;;;4926536;29;20470;-82
2022/01/06 14:33:39;;;;;;;11.17;2.73;;;;;;;;;;4928014;29;20423;-83
2022/01/06 14:36:05;;;;;;;16.52;3.15;;;;;;;;;;4937648;29;21639;-82
2022/01/06 14:38:31;;;;;;;13.63;2.72;;;;;;;;;;4912661;29;20431;-81
2022/01/06 14:40:58;;;;;;;12.27;2.97;;;;;;;;;;4926512;29;20428;-81
2022/01/06 14:43:24;;;;;;;14.25;2.90;;;;;;;;;;4942253;29;20447;-83